This is the latest recevied weather packets stored in our database for station/object WMKJ. If no packets are shown the sender has not sent any weather packets the latest 10 day(s).
| Time | Temp. | Humidity | Pressure | Rain* | Wind** | Luminosity | Snow |
|---|---|---|---|---|---|---|---|
| 1777547417 | 26.67° C | 83% | 1007 hPa | - | - | - | - |
| 1777543816 | 27.78° C | 78% | 1007 hPa | - | - | - | - |
| 1777540225 | 30° C | 70% | 1006 hPa | - | - | - | - |
| 1777536616 | 33.89° C | 59% | 1006 hPa | - | - | - | - |
| 1777533013 | 35° C | 56% | 1007 hPa | - | - | - | - |
| 1777529416 | 33.89° C | 56% | 1008 hPa | - | - | - | - |
| 1777525825 | 32.78° C | 59% | 1009 hPa | - | - | - | - |
| 1777522212 | 31.67° C | 66% | 1010 hPa | - | - | - | - |
| 1777518615 | 31.67° C | 66% | 1010 hPa | - | - | - | - |
| 1777515015 | 30° C | 74% | 1010 hPa | - | - | - | - |
| 1777511416 | 27.78° C | 83% | 1010 hPa | - | - | - | - |
| 1777507833 | 25.56° C | 88% | 1009 hPa | - | - | - | - |
| 1777489815 | 25° C | 88% | 1009 hPa | - | - | - | - |
| 1777482615 | 25° C | 94% | 1010 hPa | - | - | - | - |
| 1777457425 | 26.67° C | 78% | 1007 hPa | - | - | - | - |
| 1777453814 | 27.78° C | 74% | 1006 hPa | - | - | - | - |
| 1777450218 | 33.89° C | 59% | 1005 hPa | - | - | - | - |
| 1777446614 | 35° C | 56% | 1006 hPa | - | - | - | - |
| 1777443027 | 33.89° C | 56% | 1007 hPa | - | - | - | - |
| 1777439413 | 32.78° C | 62% | 1009 hPa | - | - | - | - |
| 1777407017 | 23.89° C | 94% | 1007 hPa | - | - | - | - |
| 1777396222 | 25° C | 88% | 1009 hPa | - | - | - | - |
| 1777389012 | 25.56° C | 88% | 1009 hPa | - | - | - | - |
| 1777385412 | 25.56° C | 88% | 1009 hPa | - | - | - | - |
| 1777381821 | 25.56° C | 88% | 1008 hPa | - | - | - | - |
* Rain since midnight (hover to see other rain measurements)
** Current wind speed in m/s (hover to see current wind gust speed)